Time;durP1;ratioP1;P1;durP2;ratioP2;P2;SDS_P1;SDS_P2;PMS_P1;PMS_P2;Temp;Humidity;BMP_temperature;BMP_pressure;BME280_temperature;BME280_humidity;BME280_pressure;Samples;Min_cycle;Max_cycle;Signal;HPM_P1;HPM_P2
2023/09/17 00:01:14;;;;;;;13.10;9.97;;;;;;;;;;5095396;28;20483;-80
2023/09/17 00:03:41;;;;;;;11.07;9.97;;;;;;;;;;5099004;28;20456;-79
2023/09/17 00:06:09;;;;;;;12.07;10.97;;;;;;;;;;5084198;28;20463;-80
2023/09/17 00:08:36;;;;;;;11.57;10.37;;;;;;;;;;5084028;28;20492;-79
2023/09/17 00:11:05;;;;;;;10.40;9.40;;;;;;;;;;5084284;28;20829;-80
2023/09/17 00:13:32;;;;;;;13.17;11.67;;;;;;;;;;5084315;28;20490;-80
2023/09/17 00:16:00;;;;;;;15.33;10.70;;;;;;;;;;5084436;28;20454;-80
2023/09/17 00:18:27;;;;;;;11.20;9.30;;;;;;;;;;5084390;28;20459;-80
2023/09/17 00:20:54;;;;;;;11.10;9.97;;;;;;;;;;5092129;28;20474;-80
2023/09/17 00:23:21;;;;;;;11.37;9.27;;;;;;;;;;5083173;28;20852;-79
2023/09/17 00:25:48;;;;;;;17.03;11.60;;;;;;;;;;5084397;28;20513;-80
2023/09/17 00:28:17;;;;;;;14.40;9.87;;;;;;;;;;5086184;28;20494;-79
2023/09/17 00:30:44;;;;;;;12.30;10.47;;;;;;;;;;5089021;28;20483;-80
2023/09/17 00:33:11;;;;;;;13.97;9.97;;;;;;;;;;5083700;28;20448;-80
2023/09/17 00:35:38;;;;;;;11.90;10.67;;;;;;;;;;5082486;28;20447;-79
2023/09/17 00:38:05;;;;;;;11.30;10.03;;;;;;;;;;5091913;28;20457;-79
2023/09/17 00:40:37;;;;;;;15.37;10.67;;;;;;;;;;5088129;28;20550;-79
2023/09/17 00:43:04;;;;;;;13.60;9.73;;;;;;;;;;5086383;28;20487;-79
2023/09/17 00:45:33;;;;;;;10.47;9.47;;;;;;;;;;5095995;28;20450;-79
2023/09/17 00:48:01;;;;;;;9.60;8.60;;;;;;;;;;5087633;28;20484;-79
2023/09/17 00:50:31;;;;;;;10.80;9.70;;;;;;;;;;5083378;28;20846;-78
2023/09/17 00:52:58;;;;;;;10.37;8.90;;;;;;;;;;5083336;28;20884;-80
2023/09/17 00:55:28;;;;;;;10.20;9.23;;;;;;;;;;5082914;28;20455;-79
2023/09/17 00:57:55;;;;;;;10.30;9.13;;;;;;;;;;5084188;28;20829;-80
2023/09/17 01:00:23;;;;;;;10.13;9.13;;;;;;;;;;5083497;28;20484;-79
2023/09/17 01:02:52;;;;;;;12.20;9.43;;;;;;;;;;5084090;28;20814;-79
2023/09/17 01:05:19;;;;;;;12.00;9.97;;;;;;;;;;5083107;28;21141;-79
2023/09/17 01:07:47;;;;;;;10.10;9.10;;;;;;;;;;5083786;28;20495;-80
2023/09/17 01:10:14;;;;;;;13.93;9.50;;;;;;;;;;5082969;28;20471;-79
2023/09/17 01:12:42;;;;;;;9.17;8.10;;;;;;;;;;5083196;28;20457;-79
2023/09/17 01:15:10;;;;;;;16.43;9.03;;;;;;;;;;5083892;28;20451;-79
2023/09/17 01:17:37;;;;;;;9.30;8.33;;;;;;;;;;5083333;28;20440;-79
2023/09/17 01:20:24;;;;;;;12.43;8.77;;;;;;;;;;5091639;28;20504;-79
2023/09/17 01:22:55;;;;;;;9.87;8.87;;;;;;;;;;5090987;28;20553;-79
2023/09/17 01:25:24;;;;;;;15.40;11.47;;;;;;;;;;5084676;28;20462;-79
2023/09/17 01:27:53;;;;;;;16.10;11.17;;;;;;;;;;5092411;28;20492;-78
2023/09/17 01:30:21;;;;;;;15.30;10.20;;;;;;;;;;5083077;28;20482;-79
2023/09/17 01:32:48;;;;;;;12.33;10.30;;;;;;;;;;5090775;28;20514;-79
2023/09/17 01:35:16;;;;;;;12.20;10.03;;;;;;;;;;5084792;28;20463;-79
2023/09/17 01:37:47;;;;;;;18.03;10.93;;;;;;;;;;5083375;28;20943;-79
2023/09/17 01:40:14;;;;;;;14.10;9.53;;;;;;;;;;5082644;28;20471;-79
2023/09/17 01:42:43;;;;;;;12.30;10.23;;;;;;;;;;5083884;28;20515;-79
2023/09/17 01:45:13;;;;;;;9.90;8.97;;;;;;;;;;5094206;28;20519;-79
2023/09/17 01:47:42;;;;;;;13.60;9.67;;;;;;;;;;5090924;28;20480;-80
2023/09/17 01:50:11;;;;;;;18.73;9.57;;;;;;;;;;5082746;28;20506;-79
2023/09/17 01:52:39;;;;;;;14.00;9.83;;;;;;;;;;5084742;28;20455;-79
2023/09/17 01:55:08;;;;;;;10.80;9.07;;;;;;;;;;5091111;28;20879;-79
2023/09/17 01:57:35;;;;;;;12.53;9.50;;;;;;;;;;5090524;28;20464;-79
2023/09/17 02:00:14;;;;;;;11.17;9.77;;;;;;;;;;5081799;28;20478;-79
2023/09/17 02:02:43;;;;;;;12.80;9.97;;;;;;;;;;5088928;28;20466;-79
2023/09/17 02:05:10;;;;;;;9.97;8.97;;;;;;;;;;5091365;28;20494;-79
2023/09/17 02:07:38;;;;;;;12.30;9.33;;;;;;;;;;5087834;28;20451;-79
2023/09/17 02:10:06;;;;;;;12.77;8.90;;;;;;;;;;5084650;28;20495;-79
2023/09/17 02:12:33;;;;;;;11.03;8.77;;;;;;;;;;5081685;28;20472;-80
2023/09/17 02:15:01;;;;;;;11.57;8.90;;;;;;;;;;5082307;28;20451;-79
2023/09/17 02:17:28;;;;;;;12.40;9.67;;;;;;;;;;5086849;28;20461;-79
2023/09/17 02:19:56;;;;;;;16.87;10.53;;;;;;;;;;5094751;28;20475;-79
2023/09/17 02:22:24;;;;;;;12.00;10.83;;;;;;;;;;5082134;28;20513;-79
2023/09/17 02:24:51;;;;;;;22.70;11.10;;;;;;;;;;5082481;28;20989;-79
2023/09/17 02:27:18;;;;;;;11.80;10.47;;;;;;;;;;5083145;28;20452;-79
2023/09/17 02:29:45;;;;;;;14.87;9.27;;;;;;;;;;5085476;28;20492;-79
2023/09/17 02:32:12;;;;;;;13.20;10.63;;;;;;;;;;5082289;28;20455;-79
2023/09/17 02:34:40;;;;;;;10.23;9.20;;;;;;;;;;5095966;28;20460;-79
2023/09/17 02:37:08;;;;;;;12.53;8.77;;;;;;;;;;5079794;28;20460;-79
2023/09/17 02:39:36;;;;;;;11.27;10.07;;;;;;;;;;5079333;28;20456;-79
2023/09/17 02:42:03;;;;;;;16.20;9.03;;;;;;;;;;5080619;28;20802;-78
2023/09/17 02:44:30;;;;;;;11.30;9.30;;;;;;;;;;5090066;28;20942;-79
2023/09/17 02:46:57;;;;;;;8.80;7.90;;;;;;;;;;5081618;28;20444;-79
2023/09/17 02:49:24;;;;;;;11.30;8.50;;;;;;;;;;5080166;28;20529;-79
2023/09/17 02:51:51;;;;;;;9.57;8.00;;;;;;;;;;5089321;28;20458;-79
2023/09/17 02:54:20;;;;;;;10.13;8.53;;;;;;;;;;5088411;28;20463;-79
2023/09/17 02:56:47;;;;;;;14.90;8.37;;;;;;;;;;5095915;28;20498;-79
2023/09/17 02:59:15;;;;;;;10.87;8.83;;;;;;;;;;5094204;28;20798;-79
2023/09/17 03:01:43;;;;;;;10.97;7.87;;;;;;;;;;5082797;28;20444;-79
2023/09/17 03:04:10;;;;;;;9.63;8.00;;;;;;;;;;5084452;28;20458;-79
2023/09/17 03:06:37;;;;;;;8.97;7.77;;;;;;;;;;5083871;28;20460;-79
2023/09/17 03:09:10;;;;;;;20.67;15.90;;;;;;;;;;5083797;28;20513;-79
2023/09/17 03:11:39;;;;;;;10.03;8.97;;;;;;;;;;5093684;28;20474;-79
2023/09/17 03:14:06;;;;;;;10.17;9.13;;;;;;;;;;5084291;28;20482;-79
2023/09/17 03:16:34;;;;;;;10.00;9.00;;;;;;;;;;5093131;28;20458;-79
2023/09/17 03:19:02;;;;;;;9.53;8.53;;;;;;;;;;5092564;28;20837;-79
2023/09/17 03:21:30;;;;;;;11.57;9.47;;;;;;;;;;5090144;28;20891;-79
2023/09/17 03:23:57;;;;;;;9.83;8.80;;;;;;;;;;5092617;28;20446;-79
2023/09/17 03:26:25;;;;;;;9.50;8.07;;;;;;;;;;5084196;28;20458;-79
2023/09/17 03:28:54;;;;;;;13.20;11.70;;;;;;;;;;5084324;28;20495;-79
2023/09/17 03:31:21;;;;;;;15.87;12.60;;;;;;;;;;5083184;28;20470;-79
2023/09/17 03:33:48;;;;;;;13.00;10.00;;;;;;;;;;5083307;28;20467;-79
2023/09/17 03:36:15;;;;;;;15.47;9.70;;;;;;;;;;5085445;28;20455;-79
2023/09/17 03:38:42;;;;;;;12.13;9.27;;;;;;;;;;5084342;28;20447;-79
2023/09/17 03:41:09;;;;;;;11.83;10.10;;;;;;;;;;5081736;28;20471;-78
2023/09/17 03:43:36;;;;;;;11.10;9.90;;;;;;;;;;5080812;28;20470;-79
2023/09/17 03:46:05;;;;;;;11.37;10.10;;;;;;;;;;5080541;28;20463;-78
2023/09/17 03:48:32;;;;;;;11.90;9.80;;;;;;;;;;5079815;28;20486;-78
2023/09/17 03:51:00;;;;;;;11.50;10.20;;;;;;;;;;5088621;28;20471;-78
2023/09/17 03:53:27;;;;;;;9.77;8.87;;;;;;;;;;5080312;28;20455;-78
2023/09/17 03:55:54;;;;;;;9.53;8.47;;;;;;;;;;5080766;28;20452;-78
2023/09/17 03:58:22;;;;;;;8.90;8.00;;;;;;;;;;5088060;28;20456;-78
2023/09/17 04:00:49;;;;;;;10.87;9.00;;;;;;;;;;5080962;28;20476;-78
2023/09/17 04:03:19;;;;;;;10.20;8.30;;;;;;;;;;5087730;28;20930;-78
2023/09/17 04:05:47;;;;;;;10.97;9.87;;;;;;;;;;5080410;28;20452;-78
2023/09/17 04:08:15;;;;;;;13.33;11.23;;;;;;;;;;5088712;28;20455;-78
2023/09/17 04:10:42;;;;;;;12.30;10.00;;;;;;;;;;5093622;28;21006;-78
2023/09/17 04:13:09;;;;;;;10.20;9.10;;;;;;;;;;5083419;28;20451;-78
2023/09/17 04:15:36;;;;;;;12.27;9.50;;;;;;;;;;5094864;28;20460;-78
2023/09/17 04:18:05;;;;;;;10.43;8.80;;;;;;;;;;5079967;28;20487;-78
2023/09/17 04:20:34;;;;;;;14.70;10.17;;;;;;;;;;5087532;28;20482;-79
2023/09/17 04:23:02;;;;;;;13.00;8.37;;;;;;;;;;5080298;28;20551;-79
2023/09/17 04:25:30;;;;;;;17.43;8.93;;;;;;;;;;5088101;28;20546;-79
2023/09/17 04:27:57;;;;;;;14.83;8.93;;;;;;;;;;5080208;28;20472;-79
2023/09/17 04:30:24;;;;;;;11.50;9.00;;;;;;;;;;5080048;28;20499;-79
2023/09/17 04:32:52;;;;;;;13.07;9.60;;;;;;;;;;5079443;28;20454;-78
2023/09/17 04:35:19;;;;;;;12.90;8.63;;;;;;;;;;5097066;28;20451;-79
2023/09/17 04:37:49;;;;;;;15.30;13.60;;;;;;;;;;5079083;28;20444;-78
2023/09/17 04:40:18;;;;;;;11.27;10.10;;;;;;;;;;5080219;28;20468;-78
2023/09/17 04:42:45;;;;;;;8.87;8.03;;;;;;;;;;5080094;28;20474;-79
2023/09/17 04:45:13;;;;;;;10.40;7.97;;;;;;;;;;5080716;28;20444;-78
2023/09/17 04:47:41;;;;;;;11.90;7.57;;;;;;;;;;5086015;28;21032;-78
2023/09/17 04:50:09;;;;;;;12.97;7.70;;;;;;;;;;5078851;28;21064;-78
2023/09/17 04:52:36;;;;;;;9.97;7.93;;;;;;;;;;5081657;28;20546;-78
2023/09/17 04:55:06;;;;;;;8.50;7.70;;;;;;;;;;5079549;28;20483;-78
2023/09/17 04:57:33;;;;;;;8.23;7.43;;;;;;;;;;5076772;28;20460;-78
2023/09/17 05:00:07;;;;;;;8.03;7.33;;;;;;;;;;5085347;28;20471;-77
2023/09/17 05:02:34;;;;;;;9.97;6.97;;;;;;;;;;5077655;28;20942;-78
2023/09/17 05:05:01;;;;;;;10.87;9.70;;;;;;;;;;5085931;28;20476;-78
2023/09/17 05:07:28;;;;;;;10.43;9.33;;;;;;;;;;5084956;28;20455;-78
2023/09/17 05:09:55;;;;;;;7.23;6.53;;;;;;;;;;5092584;28;20499;-78
2023/09/17 05:12:24;;;;;;;12.87;6.83;;;;;;;;;;5076762;28;20475;-78
2023/09/17 05:14:51;;;;;;;9.20;7.07;;;;;;;;;;5084392;28;20530;-78
2023/09/17 05:17:18;;;;;;;9.67;8.27;;;;;;;;;;5076895;28;20847;-77
2023/09/17 05:19:45;;;;;;;10.80;8.10;;;;;;;;;;5075635;28;20468;-79
2023/09/17 05:22:12;;;;;;;7.53;6.90;;;;;;;;;;5076474;28;20965;-78
2023/09/17 05:24:39;;;;;;;8.83;7.93;;;;;;;;;;5089838;28;20451;-79
2023/09/17 05:27:06;;;;;;;8.67;7.00;;;;;;;;;;5078322;28;20456;-79
2023/09/17 05:29:35;;;;;;;10.67;7.67;;;;;;;;;;5076184;28;20488;-78
2023/09/17 05:32:02;;;;;;;9.40;8.43;;;;;;;;;;5076177;28;20962;-77
2023/09/17 05:34:29;;;;;;;7.37;6.67;;;;;;;;;;5084866;28;20455;-78
2023/09/17 05:36:56;;;;;;;9.50;7.37;;;;;;;;;;5085131;28;20811;-78
2023/09/17 05:39:23;;;;;;;8.07;7.23;;;;;;;;;;5077218;28;20511;-77
2023/09/17 05:41:50;;;;;;;10.23;7.07;;;;;;;;;;5076700;28;20839;-78
2023/09/17 05:44:18;;;;;;;10.57;7.00;;;;;;;;;;5079164;28;20451;-78
2023/09/17 05:46:46;;;;;;;9.57;7.43;;;;;;;;;;5081962;28;20539;-78
2023/09/17 05:49:13;;;;;;;7.57;6.70;;;;;;;;;;5093569;28;20493;-78
2023/09/17 05:51:40;;;;;;;8.07;6.83;;;;;;;;;;5076106;28;20474;-78
2023/09/17 05:54:07;;;;;;;8.87;6.00;;;;;;;;;;5084435;22;20889;-76
2023/09/17 05:56:35;;;;;;;6.80;6.17;;;;;;;;;;5067755;28;20815;-75
2023/09/17 05:59:02;;;;;;;8.23;6.13;;;;;;;;;;5060492;28;20444;-75
2023/09/17 06:01:30;;;;;;;7.77;6.90;;;;;;;;;;5056546;28;20480;-75
2023/09/17 06:03:58;;;;;;;8.80;7.90;;;;;;;;;;5056518;28;20564;-75
2023/09/17 06:06:25;;;;;;;8.73;6.50;;;;;;;;;;5064340;28;20960;-75
2023/09/17 06:08:53;;;;;;;6.63;5.83;;;;;;;;;;5064808;28;20453;-76
2023/09/17 06:11:20;;;;;;;11.83;6.97;;;;;;;;;;5060652;28;20484;-75
2023/09/17 06:13:47;;;;;;;5.73;5.23;;;;;;;;;;5058564;28;20569;-76
2023/09/17 06:16:15;;;;;;;5.57;5.07;;;;;;;;;;5055492;28;20450;-76
2023/09/17 06:18:42;;;;;;;7.43;6.33;;;;;;;;;;5058110;28;20865;-76
2023/09/17 06:21:10;;;;;;;5.50;5.00;;;;;;;;;;5068892;28;20518;-76
2023/09/17 06:23:38;;;;;;;6.70;5.90;;;;;;;;;;5052408;28;20761;-76
2023/09/17 06:26:07;;;;;;;5.70;5.30;;;;;;;;;;5060106;28;20455;-77
2023/09/17 06:28:34;;;;;;;7.00;5.80;;;;;;;;;;5065613;28;20455;-76
2023/09/17 06:31:01;;;;;;;6.27;5.60;;;;;;;;;;5072520;28;20981;-78
2023/09/17 06:33:28;;;;;;;6.73;5.07;;;;;;;;;;5057028;28;20470;-77
2023/09/17 06:35:56;;;;;;;5.27;4.87;;;;;;;;;;5064783;28;20462;-78
2023/09/17 06:38:24;;;;;;;5.13;4.73;;;;;;;;;;5060585;28;20560;-75
2023/09/17 06:40:51;;;;;;;4.50;4.20;;;;;;;;;;5052040;28;20478;-76
2023/09/17 06:43:19;;;;;;;4.53;4.23;;;;;;;;;;5061346;28;20464;-77
2023/09/17 06:45:46;;;;;;;4.50;4.20;;;;;;;;;;5052821;28;20456;-78
2023/09/17 06:48:13;;;;;;;5.27;4.87;;;;;;;;;;5062554;28;20462;-76
2023/09/17 06:50:40;;;;;;;5.23;4.57;;;;;;;;;;5067002;28;21005;-75
2023/09/17 06:53:07;;;;;;;5.20;3.80;;;;;;;;;;5061650;28;20455;-76
2023/09/17 06:55:36;;;;;;;4.30;3.90;;;;;;;;;;5063633;28;20557;-76
2023/09/17 06:58:03;;;;;;;5.10;4.33;;;;;;;;;;5063540;28;20460;-76
2023/09/17 07:00:30;;;;;;;4.97;4.57;;;;;;;;;;5063617;28;20481;-76
2023/09/17 07:02:57;;;;;;;4.37;3.83;;;;;;;;;;5071582;28;20460;-76
2023/09/17 07:05:24;;;;;;;4.50;4.20;;;;;;;;;;5052124;28;20491;-77
2023/09/17 07:07:52;;;;;;;4.73;4.17;;;;;;;;;;5060136;28;20965;-76
2023/09/17 07:10:19;;;;;;;5.00;4.10;;;;;;;;;;5062536;28;20861;-77
2023/09/17 07:12:48;;;;;;;4.10;3.63;;;;;;;;;;5063770;28;20479;-77
2023/09/17 07:15:15;;;;;;;6.37;4.53;;;;;;;;;;5069470;28;20454;-76
2023/09/17 07:17:42;;;;;;;4.37;4.07;;;;;;;;;;5065708;28;20468;-76
2023/09/17 07:20:12;;;;;;;5.40;3.57;;;;;;;;;;5062683;28;20801;-75
2023/09/17 07:22:39;;;;;;;6.53;5.00;;;;;;;;;;5066151;28;20473;-76
2023/09/17 07:25:06;;;;;;;3.77;3.47;;;;;;;;;;5062232;28;20464;-75
2023/09/17 07:27:33;;;;;;;4.63;4.23;;;;;;;;;;5060487;28;20444;-76
2023/09/17 07:30:02;;;;;;;4.30;3.90;;;;;;;;;;5060124;28;20940;-77
2023/09/17 07:32:30;;;;;;;4.40;4.00;;;;;;;;;;5064773;28;20459;-77
2023/09/17 07:34:57;;;;;;;4.30;4.00;;;;;;;;;;5072796;28;20825;-77
2023/09/17 07:37:24;;;;;;;4.27;3.73;;;;;;;;;;5060983;28;20787;-78
2023/09/17 07:39:55;;;;;;;4.63;3.53;;;;;;;;;;5070820;28;20945;-76
2023/09/17 07:42:22;;;;;;;5.70;3.90;;;;;;;;;;5058512;28;20469;-76
2023/09/17 07:44:49;;;;;;;4.03;3.60;;;;;;;;;;5075406;28;20941;-77
2023/09/17 07:47:18;;;;;;;4.03;3.73;;;;;;;;;;5067188;28;20966;-78
2023/09/17 07:49:45;;;;;;;4.70;3.53;;;;;;;;;;5060668;28;20506;-78
2023/09/17 07:52:13;;;;;;;4.27;3.90;;;;;;;;;;5065725;28;20558;-78
2023/09/17 07:54:41;;;;;;;3.83;3.20;;;;;;;;;;5070549;28;20464;-77
2023/09/17 07:57:08;;;;;;;7.40;3.63;;;;;;;;;;5064394;28;20456;-77
2023/09/17 07:59:36;;;;;;;4.20;3.80;;;;;;;;;;5055962;28;20460;-77
2023/09/17 08:02:03;;;;;;;4.57;3.93;;;;;;;;;;5072920;28;20464;-78
2023/09/17 08:04:31;;;;;;;3.57;3.27;;;;;;;;;;5063906;28;20463;-77
2023/09/17 08:06:59;;;;;;;3.40;3.10;;;;;;;;;;5064100;28;20455;-78
2023/09/17 08:09:26;;;;;;;5.40;3.70;;;;;;;;;;5057902;28;20588;-77
2023/09/17 08:11:53;;;;;;;7.07;4.10;;;;;;;;;;5068257;28;20456;-78
2023/09/17 08:14:22;;;;;;;3.90;3.60;;;;;;;;;;5057803;28;20830;-78
2023/09/17 08:16:49;;;;;;;4.27;3.87;;;;;;;;;;5075183;28;20459;-77
2023/09/17 08:19:17;;;;;;;4.60;4.20;;;;;;;;;;5063646;28;20516;-77
2023/09/17 08:21:46;;;;;;;7.50;4.67;;;;;;;;;;5060856;28;20817;-77
2023/09/17 08:24:14;;;;;;;4.27;3.87;;;;;;;;;;5058105;28;20469;-77
2023/09/17 08:26:41;;;;;;;4.20;3.50;;;;;;;;;;5066314;28;20863;-77
2023/09/17 08:29:09;;;;;;;3.97;3.67;;;;;;;;;;5066130;28;20457;-77
2023/09/17 08:31:37;;;;;;;4.20;3.90;;;;;;;;;;5069435;28;20500;-77
2023/09/17 08:34:05;;;;;;;5.27;4.33;;;;;;;;;;5055414;28;20518;-77
2023/09/17 08:36:32;;;;;;;4.47;4.10;;;;;;;;;;5066629;28;20462;-77
2023/09/17 08:39:03;;;;;;;3.97;3.67;;;;;;;;;;5058957;28;20448;-80
2023/09/17 08:41:31;;;;;;;7.10;3.77;;;;;;;;;;5055446;28;20470;-78
2023/09/17 08:43:59;;;;;;;4.20;3.63;;;;;;;;;;5055641;28;20560;-80
2023/09/17 08:46:26;;;;;;;4.60;3.70;;;;;;;;;;5059154;28;20447;-80
2023/09/17 08:48:53;;;;;;;4.43;3.47;;;;;;;;;;5068114;28;20814;-80
2023/09/17 08:51:24;;;;;;;4.50;4.03;;;;;;;;;;5055809;28;20599;-80
2023/09/17 08:53:55;;;;;;;3.67;3.37;;;;;;;;;;5063297;28;20443;-79
2023/09/17 08:56:23;;;;;;;3.70;3.40;;;;;;;;;;5055910;28;20433;-79
2023/09/17 08:58:52;;;;;;;3.50;3.20;;;;;;;;;;5055718;28;20444;-80
2023/09/17 09:01:22;;;;;;;3.90;3.60;;;;;;;;;;5071606;28;20593;-80
2023/09/17 09:03:49;;;;;;;4.03;3.60;;;;;;;;;;5063344;28;20536;-80
2023/09/17 09:06:17;;;;;;;4.20;3.80;;;;;;;;;;5062538;28;20547;-77
2023/09/17 09:08:44;;;;;;;4.00;3.70;;;;;;;;;;5061826;28;20495;-77
2023/09/17 09:11:12;;;;;;;6.00;5.40;;;;;;;;;;5061933;28;20590;-77
2023/09/17 09:13:42;;;;;;;4.43;4.03;;;;;;;;;;5067849;28;20510;-77
2023/09/17 09:16:09;;;;;;;6.73;4.03;;;;;;;;;;5057225;28;20457;-77
2023/09/17 09:18:36;;;;;;;4.10;3.70;;;;;;;;;;5060569;28;20460;-77
2023/09/17 09:21:04;;;;;;;3.93;3.63;;;;;;;;;;5061696;28;20478;-77
2023/09/17 09:23:31;;;;;;;4.00;3.33;;;;;;;;;;5062262;28;20510;-77
2023/09/17 09:25:58;;;;;;;4.47;4.00;;;;;;;;;;5053782;28;20472;-78
2023/09/17 09:28:25;;;;;;;4.20;3.90;;;;;;;;;;5065793;28;20952;-78
2023/09/17 09:30:54;;;;;;;3.60;3.40;;;;;;;;;;5073181;28;20845;-78
2023/09/17 09:33:22;;;;;;;3.90;3.60;;;;;;;;;;5056813;28;20466;-75
2023/09/17 09:35:50;;;;;;;4.90;4.50;;;;;;;;;;5065100;28;20466;-75
2023/09/17 09:38:18;;;;;;;3.63;3.33;;;;;;;;;;5072982;28;20458;-75
2023/09/17 09:40:45;;;;;;;4.40;4.00;;;;;;;;;;5073686;28;20964;-76
2023/09/17 09:43:18;;;;;;;4.53;4.13;;;;;;;;;;5065246;28;20455;-77
2023/09/17 09:45:45;;;;;;;3.87;3.57;;;;;;;;;;5064787;28;20436;-78
2023/09/17 09:48:15;;;;;;;4.03;3.73;;;;;;;;;;5064302;28;20467;-76
2023/09/17 09:50:43;;;;;;;4.27;3.97;;;;;;;;;;5066972;28;20878;-75
2023/09/17 09:53:10;;;;;;;4.67;4.20;;;;;;;;;;5061018;28;20449;-75
2023/09/17 09:55:37;;;;;;;5.47;3.37;;;;;;;;;;5057904;28;20570;-75
2023/09/17 09:58:05;;;;;;;3.70;3.40;;;;;;;;;;5064576;28;20497;-75
2023/09/17 10:00:32;;;;;;;4.13;3.80;;;;;;;;;;5072447;28;20560;-76
2023/09/17 10:02:59;;;;;;;4.53;4.13;;;;;;;;;;5055193;28;20803;-76
2023/09/17 10:05:36;;;;;;;4.80;4.33;;;;;;;;;;5072456;28;20462;-76
2023/09/17 10:08:04;;;;;;;3.80;3.40;;;;;;;;;;5064228;28;20505;-75
2023/09/17 10:10:31;;;;;;;3.10;2.90;;;;;;;;;;5056741;28;20502;-76
2023/09/17 10:12:59;;;;;;;3.97;3.67;;;;;;;;;;5056380;28;20809;-75
2023/09/17 10:15:26;;;;;;;4.00;3.70;;;;;;;;;;5064338;28;20535;-76
2023/09/17 10:17:55;;;;;;;3.23;3.00;;;;;;;;;;5063980;28;20454;-76
2023/09/17 10:20:22;;;;;;;3.80;3.50;;;;;;;;;;5061019;28;20481;-75
2023/09/17 10:22:51;;;;;;;3.90;3.53;;;;;;;;;;5059296;28;20864;-75
2023/09/17 10:25:19;;;;;;;3.23;2.93;;;;;;;;;;5063891;28;20449;-75
2023/09/17 10:27:49;;;;;;;3.60;3.30;;;;;;;;;;5064165;28;20448;-75
2023/09/17 10:30:17;;;;;;;6.70;3.50;;;;;;;;;;5061040;28;20499;-77
2023/09/17 10:32:45;;;;;;;3.63;3.33;;;;;;;;;;5058755;28;20452;-76
2023/09/17 10:35:12;;;;;;;4.10;3.13;;;;;;;;;;5054065;28;20934;-75
2023/09/17 10:37:40;;;;;;;3.50;3.20;;;;;;;;;;5065964;28;20456;-76
2023/09/17 10:40:10;;;;;;;3.03;2.83;;;;;;;;;;5063337;28;20478;-75
2023/09/17 10:42:38;;;;;;;3.53;2.90;;;;;;;;;;5060465;28;20464;-77
2023/09/17 10:45:07;;;;;;;4.27;3.60;;;;;;;;;;5068819;28;20444;-77
2023/09/17 10:47:35;;;;;;;3.63;3.33;;;;;;;;;;5060368;28;20456;-77
2023/09/17 10:50:03;;;;;;;6.37;3.00;;;;;;;;;;5060555;28;20477;-77
2023/09/17 10:52:31;;;;;;;3.50;3.20;;;;;;;;;;5059729;28;20496;-76
2023/09/17 10:54:58;;;;;;;3.27;3.07;;;;;;;;;;5059870;28;20467;-77
2023/09/17 10:57:31;;;;;;;3.53;3.30;;;;;;;;;;5060493;28;20453;-77
2023/09/17 10:59:59;;;;;;;4.40;4.00;;;;;;;;;;5060369;28;20478;-77
2023/09/17 11:02:28;;;;;;;4.57;3.57;;;;;;;;;;5063690;28;20444;-77
2023/09/17 11:04:57;;;;;;;4.17;3.87;;;;;;;;;;5064714;28;20994;-77
2023/09/17 11:07:25;;;;;;;4.83;3.60;;;;;;;;;;5060060;28;20543;-77
2023/09/17 11:09:52;;;;;;;3.27;2.93;;;;;;;;;;5058955;28;20480;-77
2023/09/17 11:12:23;;;;;;;3.00;2.80;;;;;;;;;;5060698;28;20497;-77
2023/09/17 11:14:52;;;;;;;3.10;2.80;;;;;;;;;;5063055;28;20550;-77
2023/09/17 11:17:19;;;;;;;3.77;3.03;;;;;;;;;;5073192;28;20455;-77
2023/09/17 11:19:46;;;;;;;3.10;2.80;;;;;;;;;;5055486;28;20858;-76
2023/09/17 11:22:14;;;;;;;3.50;3.20;;;;;;;;;;5063717;28;20458;-77
2023/09/17 11:24:41;;;;;;;3.57;3.27;;;;;;;;;;5069779;28;20444;-75
2023/09/17 11:27:11;;;;;;;3.70;3.20;;;;;;;;;;5066913;28;20454;-75
2023/09/17 11:29:39;;;;;;;3.30;3.00;;;;;;;;;;5061979;28;20476;-76
2023/09/17 11:32:07;;;;;;;3.23;2.93;;;;;;;;;;5064108;28;20862;-76
2023/09/17 11:34:36;;;;;;;3.50;3.03;;;;;;;;;;5067097;28;20459;-76
2023/09/17 11:37:04;;;;;;;3.00;2.80;;;;;;;;;;5066847;28;20451;-76
2023/09/17 11:39:33;;;;;;;3.17;2.97;;;;;;;;;;5062693;28;20943;-76
2023/09/17 11:42:05;;;;;;;3.50;3.20;;;;;;;;;;5055732;28;20468;-77
2023/09/17 11:44:33;;;;;;;3.43;3.13;;;;;;;;;;5063925;28;20966;-77
2023/09/17 11:47:00;;;;;;;3.93;3.63;;;;;;;;;;5063545;28;20457;-77
2023/09/17 11:49:29;;;;;;;3.93;3.53;;;;;;;;;;5054721;28;20896;-77
2023/09/17 11:51:57;;;;;;;3.60;3.30;;;;;;;;;;5063415;28;20497;-77
2023/09/17 11:54:30;;;;;;;4.07;3.70;;;;;;;;;;5066366;28;20502;-77
2023/09/17 11:56:57;;;;;;;3.77;3.20;;;;;;;;;;5075249;28;20481;-77
2023/09/17 11:59:26;;;;;;;3.20;2.90;;;;;;;;;;5071615;28;20929;-77
2023/09/17 12:01:55;;;;;;;3.23;3.03;;;;;;;;;;5063585;28;20551;-77
2023/09/17 12:04:24;;;;;;;6.13;3.00;;;;;;;;;;5066070;28;20451;-77
2023/09/17 12:06:54;;;;;;;3.40;3.10;;;;;;;;;;5066899;28;20443;-77
2023/09/17 12:09:28;;;;;;;3.33;3.13;;;;;;;;;;5074782;28;20844;-77
2023/09/17 12:11:56;;;;;;;4.20;3.80;;;;;;;;;;5066436;28;20486;-77
2023/09/17 12:14:24;;;;;;;3.17;2.80;;;;;;;;;;5066574;28;20532;-77
2023/09/17 12:16:51;;;;;;;3.43;3.13;;;;;;;;;;5066189;28;20456;-77
2023/09/17 12:19:19;;;;;;;3.43;3.13;;;;;;;;;;5054907;28;20464;-77
2023/09/17 12:21:47;;;;;;;5.50;4.00;;;;;;;;;;5062883;28;20455;-77
2023/09/17 12:24:25;;;;;;;4.60;4.20;;;;;;;;;;5062339;28;20460;-77
2023/09/17 12:27:19;;;;;;;3.37;3.07;;;;;;;;;;5062994;28;20818;-77
2023/09/17 12:29:47;;;;;;;3.30;3.10;;;;;;;;;;5069394;28;20479;-77
2023/09/17 12:32:16;;;;;;;3.90;3.60;;;;;;;;;;5057931;28;20534;-77
2023/09/17 12:34:44;;;;;;;10.60;3.50;;;;;;;;;;5060383;28;20463;-77
2023/09/17 12:37:11;;;;;;;4.13;3.27;;;;;;;;;;5063638;28;20452;-77
2023/09/17 12:39:41;;;;;;;3.43;2.97;;;;;;;;;;5060464;28;20983;-77
2023/09/17 12:42:08;;;;;;;4.23;3.83;;;;;;;;;;5072139;28;20456;-77
2023/09/17 12:44:35;;;;;;;3.93;3.63;;;;;;;;;;5060783;28;20468;-77
2023/09/17 12:47:04;;;;;;;3.83;3.53;;;;;;;;;;5061965;28;20457;-76
2023/09/17 12:49:31;;;;;;;3.50;3.20;;;;;;;;;;5057589;28;20529;-76
2023/09/17 12:51:58;;;;;;;4.93;3.00;;;;;;;;;;5065870;28;20546;-76
2023/09/17 12:54:26;;;;;;;4.23;3.50;;;;;;;;;;5065383;28;20467;-77
2023/09/17 12:56:58;;;;;;;3.97;3.60;;;;;;;;;;5066841;28;20532;-77
2023/09/17 12:59:28;;;;;;;4.43;4.13;;;;;;;;;;5073108;28;20781;-77
2023/09/17 13:01:56;;;;;;;4.53;4.13;;;;;;;;;;5073674;28;20999;-77
2023/09/17 13:04:33;;;;;;;3.70;3.40;;;;;;;;;;5062345;28;20461;-77
2023/09/17 13:07:00;;;;;;;4.40;4.10;;;;;;;;;;5061921;28;20448;-76
2023/09/17 13:09:27;;;;;;;4.93;3.33;;;;;;;;;;5069515;28;20457;-76
2023/09/17 13:11:56;;;;;;;4.40;3.83;;;;;;;;;;5068877;28;20506;-77
2023/09/17 13:14:23;;;;;;;5.50;3.70;;;;;;;;;;5065228;28;20542;-77
2023/09/17 13:16:50;;;;;;;3.87;3.57;;;;;;;;;;5065346;28;20474;-77
2023/09/17 13:19:18;;;;;;;3.60;3.17;;;;;;;;;;5071219;28;20462;-77
2023/09/17 13:21:45;;;;;;;4.00;3.63;;;;;;;;;;5061534;28;20467;-77
2023/09/17 13:24:12;;;;;;;3.70;3.40;;;;;;;;;;5063305;28;20961;-76
2023/09/17 13:26:40;;;;;;;3.63;3.33;;;;;;;;;;5073492;28;20460;-77
2023/09/17 13:29:08;;;;;;;3.37;3.07;;;;;;;;;;5056711;28;20457;-77
2023/09/17 13:31:36;;;;;;;4.27;3.87;;;;;;;;;;5064607;28;20491;-77
2023/09/17 13:34:03;;;;;;;4.40;3.30;;;;;;;;;;5056411;28;20468;-76
2023/09/17 13:36:31;;;;;;;5.03;4.60;;;;;;;;;;5064447;28;20463;-76
2023/09/17 13:38:59;;;;;;;4.37;3.97;;;;;;;;;;5072878;28;20670;-76
2023/09/17 13:41:28;;;;;;;4.20;3.77;;;;;;;;;;5064615;28;20487;-76
2023/09/17 13:43:56;;;;;;;3.83;3.53;;;;;;;;;;5064772;28;20937;-76
2023/09/17 13:46:27;;;;;;;7.17;4.03;;;;;;;;;;5069659;28;20456;-76
2023/09/17 13:48:54;;;;;;;4.23;3.80;;;;;;;;;;5061237;28;20445;-77
2023/09/17 13:51:22;;;;;;;3.90;3.60;;;;;;;;;;5060952;28;20480;-76
2023/09/17 13:53:49;;;;;;;4.40;3.97;;;;;;;;;;5059666;28;20841;-77
2023/09/17 13:56:16;;;;;;;4.67;4.27;;;;;;;;;;5064064;28;20554;-76
2023/09/17 13:58:43;;;;;;;4.23;3.83;;;;;;;;;;5064365;28;20514;-77
2023/09/17 14:01:12;;;;;;;3.90;3.60;;;;;;;;;;5071189;28;20898;-76
2023/09/17 14:03:40;;;;;;;4.47;4.17;;;;;;;;;;5061002;28;20539;-77
2023/09/17 14:06:07;;;;;;;4.07;3.67;;;;;;;;;;5062131;28;20455;-77
2023/09/17 14:08:35;;;;;;;4.37;3.70;;;;;;;;;;5059567;28;20965;-77
2023/09/17 14:11:03;;;;;;;4.83;3.63;;;;;;;;;;5061065;28;20476;-76
2023/09/17 14:13:32;;;;;;;4.73;4.17;;;;;;;;;;5068361;28;20496;-82
2023/09/17 14:16:00;;;;;;;5.43;4.00;;;;;;;;;;5071956;28;20470;-81
2023/09/17 14:18:27;;;;;;;3.27;3.07;;;;;;;;;;5071600;28;20449;-81
2023/09/17 14:20:56;;;;;;;4.47;4.07;;;;;;;;;;5062979;28;20556;-81
2023/09/17 14:23:24;;;;;;;4.27;3.97;;;;;;;;;;5075329;28;20459;-81
2023/09/17 14:25:51;;;;;;;3.80;3.50;;;;;;;;;;5067462;28;20509;-80
2023/09/17 14:28:18;;;;;;;4.17;3.77;;;;;;;;;;5055944;28;20812;-81
2023/09/17 14:30:45;;;;;;;3.87;3.57;;;;;;;;;;5070119;28;20622;-82
2023/09/17 14:33:13;;;;;;;4.47;4.07;;;;;;;;;;5058100;28;20504;-81
2023/09/17 14:35:40;;;;;;;4.30;4.00;;;;;;;;;;5069719;28;20471;-80
2023/09/17 14:38:08;;;;;;;4.53;4.20;;;;;;;;;;5054745;28;20453;-82
2023/09/17 14:40:36;;;;;;;3.80;3.50;;;;;;;;;;5055043;28;20563;-81
2023/09/17 14:43:03;;;;;;;4.40;3.80;;;;;;;;;;5055555;28;20975;-81